createdAt,value
2017-11-08T00:00:37.047Z,24.70
2017-11-08T00:03:04.314Z,25.80
2017-11-08T00:05:31.620Z,23.70
2017-11-08T00:08:01.663Z,25.47
2017-11-08T00:10:29.132Z,25.37
2017-11-08T00:12:56.408Z,27.90
2017-11-08T00:15:23.675Z,25.73
2017-11-08T00:17:50.988Z,26.47
2017-11-08T00:20:18.255Z,26.33
2017-11-08T00:22:45.526Z,25.00
2017-11-08T00:25:12.834Z,26.10
2017-11-08T00:27:40.131Z,26.43
2017-11-08T00:30:07.407Z,25.40
2017-11-08T00:32:34.728Z,25.83
2017-11-08T00:35:02.037Z,26.80
2017-11-08T00:37:29.309Z,27.60
2017-11-08T00:39:56.582Z,26.67
2017-11-08T00:42:23.883Z,25.10
2017-11-08T00:44:51.165Z,30.50
2017-11-08T00:47:20.205Z,26.77
2017-11-08T00:49:47.499Z,27.03
2017-11-08T00:52:14.792Z,26.67
2017-11-08T00:54:42.091Z,27.97
2017-11-08T00:57:09.360Z,24.83
2017-11-08T00:59:36.655Z,27.20
2017-11-08T01:02:03.926Z,27.27
2017-11-08T01:04:31.224Z,25.70
2017-11-08T01:06:58.520Z,26.20
2017-11-08T01:09:25.825Z,26.93
2017-11-08T01:11:53.931Z,27.27
2017-11-08T01:14:21.212Z,27.07
2017-11-08T01:16:48.516Z,27.33
2017-11-08T01:19:15.790Z,26.43
2017-11-08T01:21:43.071Z,25.00
2017-11-08T01:24:10.371Z,25.30
2017-11-08T01:26:37.664Z,31.20
2017-11-08T01:29:04.940Z,28.03
2017-11-08T01:31:32.231Z,29.60
2017-11-08T01:33:59.548Z,29.13
2017-11-08T01:36:26.815Z,25.63
2017-11-08T01:38:54.096Z,24.77
2017-11-08T01:41:24.176Z,28.13
2017-11-08T01:43:51.458Z,28.47
2017-11-08T01:46:18.755Z,28.53
2017-11-08T01:48:46.056Z,25.93
2017-11-08T01:51:13.327Z,28.93
2017-11-08T01:53:40.630Z,28.07
2017-11-08T01:56:07.900Z,27.57
2017-11-08T01:58:35.173Z,27.60
2017-11-08T02:01:02.468Z,26.70
2017-11-08T02:03:29.742Z,30.53
2017-11-08T02:05:57.047Z,31.97
2017-11-08T02:08:24.324Z,29.67
2017-11-08T02:10:51.600Z,28.93
2017-11-08T02:13:18.901Z,25.47
2017-11-08T02:15:46.983Z,25.47
2017-11-08T02:18:16.863Z,28.00
2017-11-08T02:20:44.151Z,27.60
2017-11-08T02:23:11.434Z,26.50
2017-11-08T02:25:38.742Z,26.10
2017-11-08T02:28:12.631Z,28.27
2017-11-08T02:30:39.923Z,25.10
2017-11-08T02:33:07.223Z,26.40
2017-11-08T02:35:34.495Z,27.80
2017-11-08T02:38:01.791Z,26.63
2017-11-08T02:40:29.099Z,28.23
2017-11-08T02:42:56.367Z,33.10
2017-11-08T02:45:29.442Z,27.03
2017-11-08T02:47:56.719Z,26.90
2017-11-08T02:50:24.020Z,29.53
2017-11-08T02:52:51.299Z,27.60
2017-11-08T02:55:18.595Z,27.50
2017-11-08T02:57:45.877Z,27.43
2017-11-08T03:00:13.172Z,25.63
2017-11-08T03:02:46.130Z,31.30
2017-11-08T03:05:17.243Z,28.00
2017-11-08T03:07:44.542Z,29.70
2017-11-08T03:10:11.846Z,27.50
2017-11-08T03:12:39.123Z,29.93
2017-11-08T03:15:06.427Z,27.03
2017-11-08T03:17:33.719Z,29.40
2017-11-08T03:20:01.024Z,30.47
2017-11-08T03:22:28.296Z,33.70
2017-11-08T03:24:55.594Z,28.23
2017-11-08T03:27:22.866Z,26.23
2017-11-08T03:29:50.176Z,28.47
2017-11-08T03:32:17.454Z,27.53
2017-11-08T03:34:44.718Z,31.20
2017-11-08T03:37:12.025Z,27.13
2017-11-08T03:39:39.295Z,31.23
2017-11-08T03:42:06.608Z,29.17
2017-11-08T03:44:33.878Z,29.40
2017-11-08T03:47:01.146Z,29.03
2017-11-08T03:49:28.448Z,27.50
2017-11-08T03:51:55.727Z,28.80
2017-11-08T03:54:23.027Z,27.27
2017-11-08T03:56:50.335Z,27.80
2017-11-08T03:59:17.610Z,26.67
2017-11-08T04:01:44.891Z,27.30
2017-11-08T04:04:12.199Z,29.43
2017-11-08T04:06:39.483Z,36.53
2017-11-08T04:09:06.766Z,31.30
2017-11-08T04:11:34.038Z,30.37
2017-11-08T04:14:01.346Z,28.80
2017-11-08T04:16:28.615Z,29.50
2017-11-08T04:18:55.920Z,27.90
2017-11-08T04:21:23.191Z,28.23
2017-11-08T04:23:50.462Z,30.10
2017-11-08T04:26:17.770Z,33.10
2017-11-08T04:28:45.046Z,28.43
2017-11-08T04:31:12.347Z,26.97
2017-11-08T04:33:39.632Z,28.40
2017-11-08T04:36:06.905Z,28.93
2017-11-08T04:38:34.199Z,28.97
2017-11-08T04:41:01.492Z,29.40
2017-11-08T04:43:28.786Z,26.83
2017-11-08T04:45:56.097Z,26.33
2017-11-08T04:48:23.363Z,31.40
2017-11-08T04:50:50.659Z,29.50
2017-11-08T04:53:17.927Z,29.80
2017-11-08T04:55:45.396Z,26.83
2017-11-08T04:58:12.678Z,27.93
2017-11-08T05:00:39.984Z,28.30
2017-11-08T05:03:07.260Z,28.23
2017-11-08T05:05:34.561Z,29.30
2017-11-08T05:08:01.877Z,30.30
2017-11-08T05:10:29.147Z,27.17
2017-11-08T05:12:56.415Z,27.43
2017-11-08T05:15:23.711Z,27.87
2017-11-08T05:17:51.907Z,29.03
2017-11-08T05:20:19.194Z,27.30
2017-11-08T05:22:46.500Z,27.67
2017-11-08T05:25:13.766Z,32.53
2017-11-08T05:27:41.076Z,28.03
2017-11-08T05:30:08.346Z,32.33
2017-11-08T05:32:35.622Z,26.73
2017-11-08T05:35:02.918Z,27.10
2017-11-08T05:37:30.220Z,32.40
2017-11-08T05:39:57.527Z,28.23
2017-11-08T05:42:25.431Z,30.47
2017-11-08T05:44:54.773Z,30.20
2017-11-08T05:47:33.468Z,28.43
2017-11-08T05:50:00.739Z,28.43
2017-11-08T05:52:28.006Z,28.30
2017-11-08T05:54:55.311Z,28.10
2017-11-08T05:57:22.579Z,27.33
2017-11-08T05:59:49.912Z,27.87
2017-11-08T06:02:17.196Z,30.63
2017-11-08T06:04:44.498Z,36.88
2017-11-08T06:07:11.772Z,38.70
2017-11-08T06:09:39.048Z,29.13
2017-11-08T06:12:06.357Z,28.30
2017-11-08T06:14:33.637Z,29.40
2017-11-08T06:17:00.919Z,26.67
2017-11-08T06:19:28.236Z,25.90
2017-11-08T06:21:55.507Z,27.87
2017-11-08T06:24:22.781Z,29.77
2017-11-08T06:26:50.100Z,27.70
2017-11-08T06:29:17.371Z,29.20
2017-11-08T06:31:44.639Z,27.13
2017-11-08T06:34:11.943Z,27.00
2017-11-08T06:36:39.250Z,29.30
2017-11-08T06:39:06.522Z,30.10
2017-11-08T06:41:33.788Z,31.43
2017-11-08T06:44:01.087Z,31.50
2017-11-08T06:46:28.363Z,28.03
2017-11-08T06:49:03.313Z,34.90
2017-11-08T06:51:30.558Z,34.57
2017-11-08T06:53:58.019Z,28.83
2017-11-08T06:56:25.315Z,37.83
2017-11-08T06:58:52.619Z,30.13
2017-11-08T07:01:20.866Z,29.07
2017-11-08T07:03:48.163Z,28.47
2017-11-08T07:06:15.438Z,28.77
2017-11-08T07:08:43.526Z,28.77
2017-11-08T07:11:10.799Z,31.70
2017-11-08T07:13:38.067Z,30.90
2017-11-08T07:16:06.291Z,30.57
2017-11-08T07:18:33.567Z,29.70
2017-11-08T07:21:00.839Z,31.97
2017-11-08T07:23:28.135Z,29.97
2017-11-08T07:25:55.403Z,32.07
2017-11-08T07:28:22.701Z,31.17
2017-11-08T07:30:49.996Z,29.57
2017-11-08T07:33:17.300Z,30.23
2017-11-08T07:35:44.579Z,41.30
2017-11-08T07:38:11.884Z,29.87
2017-11-08T07:40:39.183Z,30.03
2017-11-08T07:43:06.456Z,34.90
2017-11-08T07:45:33.771Z,32.10
2017-11-08T07:48:01.036Z,32.67
2017-11-08T07:50:28.304Z,33.30
2017-11-08T07:52:55.603Z,32.00
2017-11-08T07:55:37.799Z,32.33
2017-11-08T07:58:05.072Z,33.50
2017-11-08T08:00:32.341Z,31.70
2017-11-08T08:02:59.648Z,32.57
2017-11-08T08:05:26.950Z,33.53
2017-11-08T08:07:54.223Z,34.97
2017-11-08T08:10:21.531Z,30.27
2017-11-08T08:12:48.818Z,32.73
2017-11-08T08:15:16.126Z,34.43
2017-11-08T08:17:43.403Z,34.97
2017-11-08T08:20:10.682Z,32.33
2017-11-08T08:22:37.975Z,34.43
2017-11-08T08:25:05.277Z,36.00
2017-11-08T08:27:32.547Z,38.00
2017-11-08T08:30:02.668Z,41.60
2017-11-08T08:32:29.941Z,36.87
2017-11-08T08:34:57.254Z,34.93
2017-11-08T08:37:24.527Z,34.93
2017-11-08T08:39:51.795Z,36.43
2017-11-08T08:42:19.103Z,34.30
2017-11-08T08:44:46.385Z,35.07
2017-11-08T08:47:13.650Z,37.80
2017-11-08T08:52:14.652Z,36.43
2017-11-08T08:54:41.916Z,36.40
2017-11-08T08:57:09.187Z,38.60
2017-11-08T08:59:36.483Z,39.73
2017-11-08T09:02:09.517Z,38.93
2017-11-08T09:04:39.374Z,37.37
2017-11-08T09:07:25.052Z,38.70
2017-11-08T09:10:08.894Z,32.80
2017-11-08T09:12:51.731Z,34.37
2017-11-08T09:15:28.195Z,37.60
2017-11-08T09:17:55.495Z,41.03
2017-11-08T09:20:26.643Z,35.80
2017-11-08T09:22:55.033Z,36.70
2017-11-08T09:25:22.319Z,38.87
2017-11-08T09:27:50.280Z,33.97
2017-11-08T09:30:17.583Z,33.30
2017-11-08T09:32:44.864Z,36.33
2017-11-08T09:35:12.167Z,35.40
2017-11-08T09:37:54.347Z,37.80
2017-11-08T09:40:23.395Z,33.80
2017-11-08T09:42:50.670Z,39.53
2017-11-08T09:45:19.906Z,33.20
2017-11-08T09:47:47.188Z,37.33
2017-11-08T09:50:14.475Z,36.70
2017-11-08T09:52:41.784Z,36.87
2017-11-08T09:55:09.117Z,35.43
2017-11-08T09:57:36.397Z,30.57
2017-11-08T10:00:04.589Z,39.33
2017-11-08T10:02:34.563Z,35.03
2017-11-08T10:05:01.846Z,40.77
2017-11-08T10:07:29.126Z,34.50
2017-11-08T10:09:56.453Z,35.67
2017-11-08T10:12:23.691Z,33.83
2017-11-08T10:14:51.027Z,36.77
2017-11-08T10:17:18.323Z,35.00
2017-11-08T10:19:45.591Z,29.97
2017-11-08T10:22:12.873Z,33.60
2017-11-08T10:24:43.136Z,36.37
2017-11-08T10:27:10.413Z,35.03
2017-11-08T10:29:37.694Z,37.83
2017-11-08T10:32:06.188Z,31.00
2017-11-08T10:34:33.533Z,31.13
2017-11-08T10:37:00.806Z,30.60
2017-11-08T10:39:28.109Z,30.33
2017-11-08T10:41:55.511Z,31.17
2017-11-08T10:44:22.756Z,29.07
2017-11-08T10:46:50.029Z,29.93
2017-11-08T10:49:21.342Z,31.17
2017-11-08T10:51:48.641Z,33.90
2017-11-08T10:54:16.592Z,35.50
2017-11-08T10:56:43.853Z,31.00
2017-11-08T10:59:16.914Z,35.20
2017-11-08T11:01:44.500Z,32.73
2017-11-08T11:04:11.798Z,31.43
2017-11-08T11:06:39.091Z,32.53
2017-11-08T11:09:06.381Z,29.47
2017-11-08T11:11:33.700Z,32.77
2017-11-08T11:14:06.623Z,30.50
2017-11-08T11:16:33.929Z,33.20
2017-11-08T11:19:01.736Z,33.30
2017-11-08T11:21:29.727Z,31.47
2017-11-08T11:23:58.907Z,30.17
2017-11-08T11:26:31.880Z,34.43
2017-11-08T11:28:59.257Z,30.60
2017-11-08T11:31:26.579Z,35.83
2017-11-08T11:33:53.843Z,32.73
2017-11-08T11:36:21.147Z,32.00
2017-11-08T11:38:48.424Z,32.93
2017-11-08T11:41:15.741Z,36.77
2017-11-08T11:43:43.016Z,36.10
2017-11-08T11:46:10.292Z,34.70
2017-11-08T11:48:39.324Z,30.87
2017-11-08T11:51:08.383Z,35.47
2017-11-08T11:53:35.673Z,32.60
2017-11-08T11:56:02.948Z,35.53
2017-11-08T11:58:30.217Z,37.17
2017-11-08T12:00:57.543Z,33.47
2017-11-08T12:03:24.822Z,36.00
2017-11-08T12:05:52.111Z,35.20
2017-11-08T12:08:19.532Z,32.87
2017-11-08T12:10:46.786Z,35.97
2017-11-08T12:13:14.100Z,39.53
2017-11-08T12:15:41.387Z,35.03
2017-11-08T12:18:08.685Z,37.90
2017-11-08T12:20:36.178Z,34.93
2017-11-08T12:23:03.448Z,36.40
2017-11-08T12:25:30.719Z,34.73
2017-11-08T12:27:58.021Z,37.80
2017-11-08T12:30:25.336Z,36.73
2017-11-08T12:32:52.609Z,38.67
2017-11-08T12:35:19.881Z,37.90
2017-11-08T12:37:47.184Z,40.87
2017-11-08T12:40:20.317Z,35.83
2017-11-08T12:42:49.423Z,37.90
2017-11-08T12:45:16.747Z,41.40
2017-11-08T12:47:44.033Z,41.40
2017-11-08T12:50:11.340Z,44.07
2017-11-08T12:52:38.617Z,40.60
2017-11-08T12:55:05.920Z,40.73
2017-11-08T12:57:37.064Z,37.60
2017-11-08T13:00:04.391Z,42.67
2017-11-08T13:02:32.132Z,38.00
2017-11-08T13:04:59.388Z,38.60
2017-11-08T13:07:26.685Z,36.70
2017-11-08T13:09:53.984Z,40.60
2017-11-08T13:12:21.290Z,34.07
2017-11-08T13:14:48.562Z,36.00
2017-11-08T13:17:15.863Z,35.63
2017-11-08T13:19:43.133Z,35.57
2017-11-08T13:22:10.422Z,37.43
2017-11-08T13:24:37.712Z,36.93
2017-11-08T13:27:04.989Z,37.23
2017-11-08T13:29:32.291Z,48.47
2017-11-08T13:31:59.600Z,36.53
2017-11-08T13:34:26.871Z,38.63
2017-11-08T13:36:54.168Z,43.17
2017-11-08T13:39:23.999Z,36.50
2017-11-08T13:41:51.304Z,38.30
2017-11-08T13:44:18.586Z,40.20
2017-11-08T13:46:45.881Z,39.53
2017-11-08T13:49:13.148Z,40.20
2017-11-08T13:51:40.444Z,37.83
2017-11-08T13:54:07.991Z,39.40
2017-11-08T13:56:35.296Z,36.00
2017-11-08T13:59:02.567Z,38.07
2017-11-08T14:01:29.846Z,38.50
2017-11-08T14:03:57.142Z,41.00
2017-11-08T14:06:24.422Z,41.33
2017-11-08T14:08:51.713Z,41.00
2017-11-08T14:11:18.982Z,39.90
2017-11-08T14:13:46.302Z,39.50
2017-11-08T14:16:13.580Z,38.43
2017-11-08T14:18:40.852Z,35.80
2017-11-08T14:21:08.151Z,40.07
2017-11-08T14:23:35.473Z,39.10
2017-11-08T14:26:02.736Z,38.30
2017-11-08T14:28:30.017Z,39.10
2017-11-08T14:30:59.114Z,37.57
2017-11-08T14:33:26.400Z,41.07
2017-11-08T14:35:53.670Z,42.57
2017-11-08T14:38:20.975Z,50.00
2017-11-08T14:40:48.249Z,41.17
2017-11-08T14:43:15.525Z,44.27
2017-11-08T14:45:42.852Z,45.50
2017-11-08T14:48:10.127Z,40.70
2017-11-08T14:50:37.404Z,38.07
2017-11-08T14:53:07.616Z,40.50
2017-11-08T14:55:34.888Z,38.50
2017-11-08T14:58:02.172Z,36.10
2017-11-08T15:00:30.672Z,50.10
2017-11-08T15:02:57.962Z,49.17
2017-11-08T15:05:25.272Z,47.03
2017-11-08T15:07:52.557Z,45.43
2017-11-08T15:10:19.901Z,50.70
2017-11-08T15:12:47.188Z,50.93
2017-11-08T15:15:15.380Z,51.30
2017-11-08T15:17:44.597Z,53.60
2017-11-08T15:20:17.667Z,53.37
2017-11-08T15:22:45.124Z,46.67
2017-11-08T15:25:12.390Z,44.37
2017-11-08T15:27:39.696Z,44.93
2017-11-08T15:30:07.884Z,41.53
2017-11-08T15:32:37.047Z,37.40
2017-11-08T15:35:04.316Z,44.60
2017-11-08T15:37:31.619Z,41.67
2017-11-08T15:39:58.899Z,42.80
2017-11-08T15:42:26.213Z,36.73
2017-11-08T15:44:53.492Z,38.20
2017-11-08T15:47:21.100Z,42.40
2017-11-08T15:49:48.501Z,39.63
2017-11-08T15:52:15.805Z,38.33
2017-11-08T15:54:43.076Z,38.33
2017-11-08T15:57:10.375Z,38.37
2017-11-08T15:59:37.644Z,35.73
2017-11-08T16:02:05.868Z,38.13
2017-11-08T16:04:33.164Z,38.43
2017-11-08T16:07:00.468Z,37.80
2017-11-08T16:09:27.745Z,37.03
2017-11-08T16:11:56.900Z,37.73
2017-11-08T16:14:24.172Z,38.83
2017-11-08T16:16:51.894Z,41.47
2017-11-08T16:19:19.185Z,37.97
2017-11-08T16:21:46.486Z,40.40
2017-11-08T16:24:15.500Z,36.60
2017-11-08T16:26:42.805Z,36.30
2017-11-08T16:29:10.080Z,31.57
2017-11-08T16:31:38.296Z,36.10
2017-11-08T16:34:05.592Z,33.23
2017-11-08T16:36:32.863Z,34.67
2017-11-08T16:39:00.436Z,33.13
2017-11-08T16:41:27.708Z,33.90
2017-11-08T16:43:55.419Z,37.10
2017-11-08T16:46:29.330Z,38.17
2017-11-08T16:49:00.802Z,35.07
2017-11-08T16:51:28.290Z,33.67
2017-11-08T16:53:55.561Z,37.30
2017-11-08T16:56:22.880Z,32.10
2017-11-08T16:58:50.182Z,39.20
2017-11-08T17:01:17.448Z,33.20
2017-11-08T17:03:44.893Z,31.27
2017-11-08T17:06:12.198Z,32.67
2017-11-08T17:11:14.829Z,29.83
2017-11-08T17:13:42.097Z,42.80
2017-11-08T17:16:09.368Z,33.67
2017-11-08T17:18:36.688Z,33.27
2017-11-08T17:21:03.964Z,32.80
2017-11-08T17:23:31.241Z,31.60
2017-11-08T17:25:58.543Z,32.87
2017-11-08T17:28:25.850Z,34.23
2017-11-08T17:33:26.736Z,30.83
2017-11-08T17:35:54.038Z,29.17
2017-11-08T17:38:21.341Z,31.17
2017-11-08T17:40:48.616Z,30.43
2017-11-08T17:43:15.939Z,31.30
2017-11-08T17:45:43.209Z,28.33
2017-11-08T17:48:10.493Z,33.60
2017-11-08T17:50:37.788Z,33.30
2017-11-08T17:53:05.096Z,33.90
2017-11-08T17:55:32.397Z,39.53
2017-11-08T17:57:59.665Z,44.83
2017-11-08T18:00:26.963Z,35.80
2017-11-08T18:02:54.265Z,33.47
2017-11-08T18:08:17.732Z,34.57
2017-11-08T18:10:45.010Z,35.27
2017-11-08T18:13:12.312Z,39.40
2017-11-08T18:15:39.665Z,38.77
2017-11-08T18:18:06.999Z,40.10
2017-11-08T18:20:34.382Z,40.57
2017-11-08T18:23:01.947Z,40.50
2017-11-08T18:25:29.928Z,39.00
2017-11-08T18:27:57.207Z,39.33
2017-11-08T18:30:24.529Z,47.90
2017-11-08T18:32:51.803Z,40.80
2017-11-08T18:35:19.089Z,46.13
2017-11-08T18:37:46.408Z,42.57
2017-11-08T18:40:13.686Z,45.87
2017-11-08T18:42:40.980Z,44.80
2017-11-08T18:45:08.271Z,44.90
2017-11-08T18:47:35.556Z,48.70
2017-11-08T18:50:02.879Z,44.37
2017-11-08T18:52:30.167Z,55.20
2017-11-08T18:54:57.441Z,41.27
2017-11-08T18:57:24.736Z,38.57
2017-11-08T18:59:52.008Z,41.90
2017-11-08T19:02:20.153Z,44.87
2017-11-08T19:04:47.707Z,40.80
2017-11-08T19:07:14.986Z,43.10
2017-11-08T19:09:43.672Z,40.93
2017-11-08T19:12:10.944Z,41.13
2017-11-08T19:14:38.225Z,51.93
2017-11-08T19:17:05.537Z,44.70
2017-11-08T19:19:32.819Z,49.10
2017-11-08T19:22:00.100Z,40.70
2017-11-08T19:24:27.409Z,51.83
2017-11-08T19:26:54.721Z,58.50
2017-11-08T19:29:22.026Z,45.47
2017-11-08T19:31:49.301Z,46.13
2017-11-08T19:34:16.606Z,45.60
2017-11-08T19:36:44.281Z,44.70
2017-11-08T19:39:11.554Z,53.37
2017-11-08T19:41:38.865Z,44.03
2017-11-08T19:44:06.482Z,53.67
2017-11-08T19:46:33.757Z,47.00
2017-11-08T19:49:01.054Z,46.57
2017-11-08T19:51:28.348Z,42.33
2017-11-08T19:53:55.646Z,61.10
2017-11-08T19:56:22.958Z,46.07
2017-11-08T19:58:50.249Z,49.53
2017-11-08T20:01:17.542Z,47.87
2017-11-08T20:03:44.861Z,49.80
2017-11-08T20:06:12.142Z,52.43
2017-11-08T20:08:39.427Z,58.50
2017-11-08T20:11:06.731Z,47.83
2017-11-08T20:13:34.021Z,48.77
2017-11-08T20:16:01.327Z,49.00
2017-11-08T20:18:28.631Z,57.07
2017-11-08T20:20:56.088Z,56.80
2017-11-08T20:23:23.354Z,50.10
2017-11-08T20:25:50.632Z,50.53
2017-11-08T20:28:17.939Z,58.87
2017-11-08T20:30:45.226Z,52.33
2017-11-08T20:33:12.497Z,61.47
2017-11-08T20:35:39.809Z,56.37
2017-11-08T20:38:07.114Z,61.73
2017-11-08T20:40:34.427Z,51.60
2017-11-08T20:43:01.736Z,56.90
2017-11-08T20:45:29.036Z,55.83
2017-11-08T20:47:56.321Z,68.37
2017-11-08T20:50:23.616Z,57.23
2017-11-08T20:52:50.960Z,57.70
2017-11-08T20:55:18.242Z,55.30
2017-11-08T20:57:45.733Z,56.77
2017-11-08T21:00:13.040Z,53.33
2017-11-08T21:02:40.494Z,52.63
2017-11-08T21:05:07.943Z,63.90
2017-11-08T21:07:36.769Z,51.87
2017-11-08T21:10:04.589Z,52.27
2017-11-08T21:12:33.096Z,67.97
2017-11-08T21:15:00.359Z,52.90
2017-11-08T21:17:28.149Z,58.70
2017-11-08T21:19:56.107Z,61.50
2017-11-08T21:22:23.563Z,48.60
2017-11-08T21:24:50.844Z,57.10
2017-11-08T21:27:18.158Z,51.20
2017-11-08T21:29:45.446Z,52.70
2017-11-08T21:32:12.765Z,51.07
2017-11-08T21:34:40.037Z,51.57
2017-11-08T21:37:07.321Z,54.00
2017-11-08T21:39:34.647Z,56.37
2017-11-08T21:42:02.267Z,51.97
2017-11-08T21:44:29.668Z,51.23
2017-11-08T21:46:56.967Z,56.20
2017-11-08T21:49:24.255Z,52.97
2017-11-08T21:51:52.984Z,56.10
2017-11-08T21:54:21.765Z,53.00
2017-11-08T21:56:49.061Z,54.67
2017-11-08T21:59:16.459Z,54.93
2017-11-08T22:01:43.949Z,53.90
2017-11-08T22:04:11.229Z,49.77
2017-11-08T22:06:39.091Z,56.70
2017-11-08T22:09:07.335Z,55.43
2017-11-08T22:11:34.616Z,57.60
2017-11-08T22:14:01.909Z,50.20
2017-11-08T22:16:29.197Z,54.53
2017-11-08T22:18:56.501Z,58.60
2017-11-08T22:21:23.782Z,54.97
2017-11-08T22:23:51.088Z,59.13
2017-11-08T22:26:18.405Z,60.30
2017-11-08T22:28:45.688Z,52.00
2017-11-08T22:31:12.962Z,51.47
2017-11-08T22:33:40.277Z,48.50
2017-11-08T22:36:08.100Z,53.57
2017-11-08T22:38:35.386Z,58.77
2017-11-08T22:41:02.683Z,53.37
2017-11-08T22:43:29.996Z,52.90
2017-11-08T22:45:57.272Z,56.57
2017-11-08T22:48:24.552Z,55.33
2017-11-08T22:50:51.869Z,55.10
2017-11-08T22:53:19.171Z,56.43
2017-11-08T22:55:46.452Z,55.20
2017-11-08T22:58:15.075Z,64.23
2017-11-08T23:00:42.333Z,51.80
2017-11-08T23:03:09.653Z,57.70
2017-11-08T23:05:36.936Z,51.93
2017-11-08T23:08:04.212Z,54.63
2017-11-08T23:10:31.618Z,52.47
2017-11-08T23:12:58.892Z,48.97
2017-11-08T23:15:27.139Z,48.00
2017-11-08T23:17:54.911Z,57.13
2017-11-08T23:20:22.347Z,51.63
2017-11-08T23:22:49.773Z,57.10
2017-11-08T23:25:17.228Z,55.30
2017-11-08T23:27:44.509Z,48.70
2017-11-08T23:30:11.807Z,59.57
2017-11-08T23:32:39.826Z,48.97
2017-11-08T23:35:07.850Z,50.23
2017-11-08T23:37:35.133Z,48.33
2017-11-08T23:40:02.428Z,50.33
2017-11-08T23:42:29.708Z,61.17
2017-11-08T23:44:57.512Z,50.70
2017-11-08T23:47:24.781Z,48.77
2017-11-08T23:49:52.058Z,47.17
2017-11-08T23:52:19.348Z,57.67
2017-11-08T23:54:46.637Z,49.90
2017-11-08T23:57:22.688Z,57.10
2017-11-08T23:59:49.960Z,53.20
